Greenspond, Canada
Current Conditions -  °F | °C
As of 5:00 AM on Friday 24 Oct 2014 (Local Time) from CYQX Reporting Station
Light Fog Light Fog  
Wind Chill: -1°   Ceiling: 26000
Heat Index:   Visibility: 20mi
Dew Point:   Wind: 5mph
Humidity: 100%   Direction: 70°ENE
Pressure: 30.08"   Gusts: NA
Location:  49.05°N, 53.58°W
Report Text: CYQX 240700Z 07004KT 20SM PRFG FEW190 BKN260 01/01 A3008 RMK AC1CI5 VIS NE-E 3/4 SLP191
Loading
Personal Weather Stations






























Interactive Weather Map
Tropical Storm Tracking
New forecast layout! Learn more

10-Day Weather Forecast

Advertisements
Track Severe Weather on mobile